createdAt,value
2017-09-14T00:02:09.479Z,84.50
2017-09-14T00:04:37.209Z,84.20
2017-09-14T00:07:04.720Z,84.80
2017-09-14T00:09:32.234Z,84.60
2017-09-14T00:11:59.904Z,84.60
2017-09-14T00:14:27.522Z,84.80
2017-09-14T00:16:55.052Z,84.80
2017-09-14T00:19:22.571Z,85.00
2017-09-14T00:21:50.326Z,85.00
2017-09-14T00:24:17.860Z,85.10
2017-09-14T00:26:45.556Z,85.80
2017-09-14T00:29:13.060Z,86.10
2017-09-14T00:31:40.752Z,85.40
2017-09-14T00:34:08.864Z,85.50
2017-09-14T00:36:36.372Z,85.50
2017-09-14T00:39:03.876Z,85.70
2017-09-14T00:41:31.392Z,86.00
2017-09-14T00:43:58.904Z,85.30
2017-09-14T00:46:26.432Z,85.70
2017-09-14T00:48:54.062Z,86.20
2017-09-14T00:51:22.826Z,86.20
2017-09-14T00:53:50.358Z,86.10
2017-09-14T00:56:18.096Z,86.00
2017-09-14T00:58:45.733Z,85.90
2017-09-14T01:01:13.289Z,86.10
2017-09-14T01:03:40.800Z,86.00
2017-09-14T01:06:08.306Z,87.00
2017-09-14T01:08:35.815Z,86.40
2017-09-14T01:11:03.453Z,87.70
2017-09-14T01:13:31.019Z,86.60
2017-09-14T01:15:58.513Z,87.40
2017-09-14T01:18:27.023Z,87.40
2017-09-14T01:20:55.400Z,87.50
2017-09-14T01:23:23.531Z,87.30
2017-09-14T01:25:51.031Z,87.70
2017-09-14T01:28:18.536Z,88.00
2017-09-14T01:30:46.056Z,88.00
2017-09-14T01:33:13.635Z,87.90
2017-09-14T01:35:41.393Z,88.00
2017-09-14T01:38:09.104Z,88.00
2017-09-14T01:40:36.624Z,88.30
2017-09-14T01:43:04.377Z,89.00
2017-09-14T01:45:31.888Z,88.60
2017-09-14T01:47:59.764Z,88.50
2017-09-14T01:50:27.358Z,88.90
2017-09-14T01:52:55.128Z,89.50
2017-09-14T01:55:22.635Z,89.40
2017-09-14T01:57:50.326Z,89.00
2017-09-14T02:00:18.258Z,89.50
2017-09-14T02:02:45.752Z,89.30
2017-09-14T02:05:13.255Z,89.50
2017-09-14T02:07:40.768Z,89.60
2017-09-14T02:10:08.558Z,89.40
2017-09-14T02:12:36.063Z,89.60
2017-09-14T02:15:03.601Z,90.10
2017-09-14T02:17:31.228Z,89.90
2017-09-14T02:19:58.733Z,90.10
2017-09-14T02:22:26.424Z,90.00
2017-09-14T02:24:53.929Z,90.30
2017-09-14T02:27:21.434Z,90.40
2017-09-14T02:29:49.115Z,90.50
2017-09-14T02:32:16.884Z,90.30
2017-09-14T02:34:44.645Z,90.60
2017-09-14T02:37:12.155Z,90.40
2017-09-14T02:39:39.659Z,90.60
2017-09-14T02:42:07.165Z,90.70
2017-09-14T02:44:35.446Z,90.70
2017-09-14T02:47:03.507Z,90.70
2017-09-14T02:49:31.280Z,90.80
2017-09-14T02:51:58.998Z,90.80
2017-09-14T02:54:26.514Z,90.90
2017-09-14T02:56:54.211Z,91.20
2017-09-14T02:59:22.281Z,91.10
2017-09-14T03:01:50.044Z,91.00
2017-09-14T03:04:17.586Z,91.00
2017-09-14T03:06:45.268Z,91.00
2017-09-14T03:09:12.764Z,90.90
2017-09-14T03:11:40.666Z,90.90
2017-09-14T03:14:08.251Z,91.10
2017-09-14T03:16:36.012Z,91.10
2017-09-14T03:19:03.520Z,91.10
2017-09-14T03:21:31.236Z,91.00
2017-09-14T03:23:58.870Z,91.10
2017-09-14T03:26:26.456Z,91.20
2017-09-14T03:28:54.223Z,90.90
2017-09-14T03:31:21.728Z,91.20
2017-09-14T03:33:49.242Z,91.20
2017-09-14T03:36:16.856Z,91.40
2017-09-14T03:38:44.652Z,91.40
2017-09-14T03:41:12.179Z,91.20
2017-09-14T03:43:39.880Z,91.40
2017-09-14T03:46:07.379Z,91.40
2017-09-14T03:48:34.904Z,91.40
2017-09-14T03:51:02.401Z,91.40
2017-09-14T03:53:31.728Z,91.40
2017-09-14T03:55:59.489Z,91.40
2017-09-14T03:58:27.254Z,91.40
2017-09-14T04:00:54.800Z,91.50
2017-09-14T04:03:22.605Z,91.50
2017-09-14T04:05:50.365Z,91.60
2017-09-14T04:08:17.897Z,91.80
2017-09-14T04:10:45.549Z,91.80
2017-09-14T04:13:13.071Z,91.80
2017-09-14T04:15:40.676Z,91.50
2017-09-14T04:18:08.271Z,91.70
2017-09-14T04:20:35.773Z,91.60
2017-09-14T04:23:03.443Z,91.70
2017-09-14T04:25:31.364Z,91.80
2017-09-14T04:27:58.882Z,91.80
2017-09-14T04:30:26.465Z,91.90
2017-09-14T04:32:53.964Z,91.80
2017-09-14T04:35:21.668Z,92.10
2017-09-14T04:37:49.164Z,92.00
2017-09-14T04:40:16.911Z,92.10
2017-09-14T04:42:44.421Z,91.90
2017-09-14T04:45:12.100Z,92.10
2017-09-14T04:47:39.600Z,92.00
2017-09-14T04:50:07.110Z,92.00
2017-09-14T04:52:34.726Z,92.00
2017-09-14T04:55:03.036Z,92.10
2017-09-14T04:57:30.645Z,92.10
2017-09-14T04:59:58.377Z,92.10
2017-09-14T05:02:25.873Z,92.40
2017-09-14T05:04:53.624Z,92.00
2017-09-14T05:07:21.128Z,92.00
2017-09-14T05:09:48.849Z,92.20
2017-09-14T05:12:16.349Z,91.80
2017-09-14T05:14:44.076Z,91.80
2017-09-14T05:17:12.313Z,91.80
2017-09-14T05:19:39.823Z,91.90
2017-09-14T05:22:08.115Z,91.80
2017-09-14T05:24:43.518Z,92.00
2017-09-14T05:27:11.103Z,92.00
2017-09-14T05:29:39.252Z,92.00
2017-09-14T05:32:07.081Z,91.80
2017-09-14T05:34:34.770Z,91.80
2017-09-14T05:37:02.294Z,91.90
2017-09-14T05:39:29.992Z,91.90
2017-09-14T05:41:57.513Z,92.00
2017-09-14T05:44:25.216Z,91.70
2017-09-14T05:46:52.740Z,93.50
2017-09-14T05:49:20.623Z,92.90
2017-09-14T05:51:48.183Z,92.00
2017-09-14T05:54:15.686Z,93.40
2017-09-14T05:56:43.297Z,98.50
2017-09-14T05:59:10.882Z,92.20
2017-09-14T06:01:38.384Z,93.90
2017-09-14T06:04:05.961Z,92.20
2017-09-14T06:06:33.446Z,91.90
2017-09-14T06:09:01.129Z,91.60
2017-09-14T06:11:28.623Z,95.70
2017-09-14T06:13:56.196Z,92.30
2017-09-14T06:16:23.735Z,92.10
2017-09-14T06:18:51.419Z,90.50
2017-09-14T06:21:18.935Z,91.20
2017-09-14T06:23:46.470Z,91.50
2017-09-14T06:26:15.058Z,91.60
2017-09-14T06:28:42.577Z,91.60
2017-09-14T06:31:10.070Z,91.50
2017-09-14T06:33:37.591Z,91.50
2017-09-14T06:36:05.184Z,91.40
2017-09-14T06:38:32.936Z,91.40
2017-09-14T06:41:00.440Z,91.20
2017-09-14T06:43:27.952Z,91.30
2017-09-14T06:45:55.460Z,91.10
2017-09-14T06:48:23.742Z,90.80
2017-09-14T06:50:51.244Z,90.80
2017-09-14T06:53:18.747Z,90.70
2017-09-14T06:55:47.019Z,90.70
2017-09-14T06:58:15.330Z,90.60
2017-09-14T07:00:42.849Z,90.60
2017-09-14T07:03:10.343Z,90.60
2017-09-14T07:05:38.780Z,90.70
2017-09-14T07:08:06.277Z,90.50
2017-09-14T07:10:33.793Z,90.30
2017-09-14T07:13:01.299Z,90.50
2017-09-14T07:15:28.813Z,90.10
2017-09-14T07:17:56.520Z,90.20
2017-09-14T07:20:24.241Z,90.10
2017-09-14T07:22:51.746Z,90.00
2017-09-14T07:25:19.272Z,90.00
2017-09-14T07:27:46.771Z,89.50
2017-09-14T07:30:14.292Z,89.20
2017-09-14T07:32:42.096Z,89.30
2017-09-14T07:35:09.612Z,88.60
2017-09-14T07:37:37.128Z,88.70
2017-09-14T07:40:04.892Z,88.10
2017-09-14T07:42:32.641Z,87.60
2017-09-14T07:45:00.404Z,87.80
2017-09-14T07:47:27.937Z,87.80
2017-09-14T07:49:55.624Z,87.60
2017-09-14T07:52:23.124Z,87.80
2017-09-14T07:54:50.638Z,87.60
2017-09-14T07:57:18.150Z,87.50
2017-09-14T07:59:46.412Z,86.00
2017-09-14T08:02:13.978Z,86.00
2017-09-14T08:04:41.460Z,86.30
2017-09-14T08:07:09.037Z,86.10
2017-09-14T08:09:36.563Z,86.10
2017-09-14T08:12:04.062Z,85.60
2017-09-14T08:14:31.614Z,85.50
2017-09-14T08:16:59.115Z,84.60
2017-09-14T08:19:26.644Z,85.10
2017-09-14T08:21:54.145Z,84.50
2017-09-14T08:24:21.766Z,84.90
2017-09-14T08:26:49.268Z,84.80
2017-09-14T08:29:16.972Z,83.60
2017-09-14T08:31:44.477Z,83.40
2017-09-14T08:34:11.992Z,83.60
2017-09-14T08:36:39.752Z,83.50
2017-09-14T08:39:07.264Z,83.70
2017-09-14T08:41:34.800Z,82.90
2017-09-14T08:44:02.426Z,83.70
2017-09-14T08:46:29.966Z,82.60
2017-09-14T08:48:57.468Z,82.00
2017-09-14T08:51:25.084Z,80.80
2017-09-14T08:53:53.012Z,80.60
2017-09-14T08:56:20.508Z,80.20
2017-09-14T08:58:48.039Z,80.10
2017-09-14T09:01:15.557Z,79.90
2017-09-14T09:03:43.066Z,80.80
2017-09-14T09:06:10.639Z,79.90
2017-09-14T09:08:38.157Z,80.40
2017-09-14T09:11:05.660Z,80.00
2017-09-14T09:13:33.160Z,79.10
2017-09-14T09:16:00.666Z,78.80
2017-09-14T09:18:28.163Z,78.60
2017-09-14T09:20:55.809Z,77.50
2017-09-14T09:23:23.312Z,77.50
2017-09-14T09:25:51.040Z,77.00
2017-09-14T09:28:18.557Z,77.00
2017-09-14T09:30:46.059Z,77.90
2017-09-14T09:33:13.713Z,77.80
2017-09-14T09:35:41.207Z,77.00
2017-09-14T09:38:09.827Z,76.90
2017-09-14T09:40:37.548Z,76.80
2017-09-14T09:43:05.072Z,76.60
2017-09-14T09:45:32.604Z,74.70
2017-09-14T09:48:00.288Z,75.00
2017-09-14T09:50:27.799Z,74.10
2017-09-14T09:52:55.313Z,72.50
2017-09-14T09:55:22.822Z,73.20
2017-09-14T09:57:50.422Z,73.20
2017-09-14T10:00:17.934Z,73.10
2017-09-14T10:02:45.622Z,72.50
2017-09-14T10:05:13.128Z,71.50
2017-09-14T10:07:40.884Z,72.40
2017-09-14T10:10:08.382Z,72.70
2017-09-14T10:12:36.009Z,73.00
2017-09-14T10:15:03.517Z,72.60
2017-09-14T10:17:31.028Z,73.00
2017-09-14T10:19:58.763Z,72.50
2017-09-14T10:22:27.012Z,71.80
2017-09-14T10:24:54.600Z,70.80
2017-09-14T10:27:22.106Z,69.60
2017-09-14T10:29:49.614Z,69.20
2017-09-14T10:32:17.246Z,68.40
2017-09-14T10:34:44.767Z,68.50
2017-09-14T10:37:12.249Z,67.80
2017-09-14T10:39:39.760Z,67.80
2017-09-14T10:42:07.257Z,67.60
2017-09-14T10:44:34.779Z,67.30
2017-09-14T10:47:02.291Z,67.70
2017-09-14T10:49:29.800Z,66.50
2017-09-14T10:51:57.411Z,66.10
2017-09-14T10:54:25.000Z,66.30
2017-09-14T10:56:52.517Z,65.90
2017-09-14T10:59:20.216Z,65.10
2017-09-14T11:01:47.728Z,65.20
2017-09-14T11:04:15.441Z,64.60
2017-09-14T11:06:42.948Z,64.30
2017-09-14T11:09:10.460Z,64.50
2017-09-14T11:11:37.980Z,63.80
2017-09-14T11:14:05.580Z,63.70
2017-09-14T11:16:33.205Z,63.60
2017-09-14T11:19:00.767Z,63.60
2017-09-14T11:21:28.279Z,62.10
2017-09-14T11:23:56.009Z,63.50
2017-09-14T11:26:23.543Z,63.70
2017-09-14T11:28:51.228Z,63.30
2017-09-14T11:31:18.739Z,63.40
2017-09-14T11:33:46.256Z,64.00
2017-09-14T11:36:13.904Z,63.70
2017-09-14T11:38:41.418Z,63.30
2017-09-14T11:41:08.920Z,61.70
2017-09-14T11:43:36.434Z,61.60
2017-09-14T11:46:03.944Z,61.00
2017-09-14T11:48:31.447Z,61.40
2017-09-14T11:50:58.952Z,60.70
2017-09-14T11:53:26.593Z,60.40
2017-09-14T11:55:54.120Z,61.20
2017-09-14T11:58:21.624Z,61.90
2017-09-14T12:00:49.354Z,61.20
2017-09-14T12:03:16.852Z,60.40
2017-09-14T12:05:44.513Z,60.20
2017-09-14T12:08:12.111Z,59.70
2017-09-14T12:10:40.509Z,59.10
2017-09-14T12:13:08.013Z,59.80
2017-09-14T12:15:35.660Z,59.50
2017-09-14T12:18:03.238Z,59.30
2017-09-14T12:20:30.776Z,58.80
2017-09-14T12:22:58.337Z,60.30
2017-09-14T12:25:26.126Z,60.20
2017-09-14T12:27:53.620Z,58.70
2017-09-14T12:30:21.357Z,58.80
2017-09-14T12:32:49.084Z,59.30
2017-09-14T12:35:16.595Z,60.50
2017-09-14T12:37:44.312Z,61.00
2017-09-14T12:40:11.945Z,59.80
2017-09-14T12:42:39.563Z,60.20
2017-09-14T12:45:07.290Z,61.30
2017-09-14T12:47:34.796Z,60.70
2017-09-14T12:50:02.527Z,59.90
2017-09-14T12:52:30.029Z,58.70
2017-09-14T12:54:57.768Z,59.10
2017-09-14T12:57:25.265Z,59.40
2017-09-14T12:59:52.972Z,60.70
2017-09-14T13:02:20.715Z,61.10
2017-09-14T13:04:48.225Z,61.90
2017-09-14T13:07:15.934Z,61.60
2017-09-14T13:09:43.432Z,62.00
2017-09-14T13:12:10.961Z,62.20
2017-09-14T13:14:38.605Z,63.10
2017-09-14T13:17:06.119Z,64.30
2017-09-14T13:19:33.812Z,65.30
2017-09-14T13:22:01.316Z,65.60
2017-09-14T13:24:30.033Z,64.90
2017-09-14T13:26:58.357Z,65.80
2017-09-14T13:29:25.993Z,66.10
2017-09-14T13:31:53.484Z,66.60
2017-09-14T13:34:21.032Z,65.80
2017-09-14T13:36:48.540Z,66.70
2017-09-14T13:39:16.213Z,65.50
2017-09-14T13:41:43.736Z,64.80
2017-09-14T13:44:11.240Z,64.30
2017-09-14T13:46:38.902Z,64.40
2017-09-14T13:49:06.368Z,64.70
2017-09-14T13:51:33.876Z,65.20
2017-09-14T13:54:01.576Z,65.20
2017-09-14T13:56:29.376Z,65.20
2017-09-14T13:58:57.134Z,65.00
2017-09-14T14:01:24.635Z,63.70
2017-09-14T14:03:52.352Z,64.40
2017-09-14T14:06:19.856Z,62.10
2017-09-14T14:08:47.567Z,61.20
2017-09-14T14:11:15.337Z,61.20
2017-09-14T14:13:43.098Z,61.10
2017-09-14T14:16:10.609Z,61.30
2017-09-14T14:18:38.126Z,61.30
2017-09-14T14:21:05.748Z,61.20
2017-09-14T14:23:33.553Z,62.00
2017-09-14T14:26:01.378Z,62.40
2017-09-14T14:28:29.068Z,62.80
2017-09-14T14:30:56.567Z,64.60
2017-09-14T14:33:24.160Z,64.50
2017-09-14T14:35:51.653Z,66.00
2017-09-14T14:38:19.161Z,66.30
2017-09-14T14:40:46.776Z,67.40
2017-09-14T14:43:14.202Z,68.40
2017-09-14T14:45:41.881Z,69.80
2017-09-14T14:48:10.354Z,70.40
2017-09-14T14:50:37.901Z,72.50
2017-09-14T14:53:05.480Z,74.00
2017-09-14T14:55:33.024Z,76.70
2017-09-14T14:58:01.242Z,78.40
2017-09-14T15:00:28.761Z,80.90
2017-09-14T15:02:56.255Z,82.70
2017-09-14T15:05:23.770Z,82.50
2017-09-14T15:07:51.385Z,81.60
2017-09-14T15:10:18.894Z,81.50
2017-09-14T15:12:46.394Z,81.50
2017-09-14T15:15:13.946Z,80.90
2017-09-14T15:17:41.572Z,76.80
2017-09-14T15:20:09.075Z,77.10
2017-09-14T15:22:36.675Z,73.50
2017-09-14T15:25:04.228Z,71.90
2017-09-14T15:27:31.737Z,71.00
2017-09-14T15:29:59.264Z,69.40
2017-09-14T15:32:27.851Z,70.40
2017-09-14T15:34:55.608Z,68.70
2017-09-14T15:37:23.113Z,68.10
2017-09-14T15:39:56.356Z,67.80
2017-09-14T15:42:29.578Z,68.00
2017-09-14T15:45:02.836Z,68.30
2017-09-14T15:47:30.377Z,68.90
2017-09-14T15:50:04.321Z,69.40
2017-09-14T15:52:32.086Z,69.40
2017-09-14T15:55:00.378Z,69.60
2017-09-14T15:57:27.878Z,70.90
2017-09-14T15:59:55.368Z,70.10
2017-09-14T16:02:23.017Z,70.70
2017-09-14T16:04:50.582Z,71.30
2017-09-14T16:07:18.096Z,71.30
2017-09-14T16:09:45.607Z,71.70
2017-09-14T16:12:13.168Z,71.90
2017-09-14T16:14:40.724Z,72.20
2017-09-14T16:17:08.252Z,78.80
2017-09-14T16:19:35.935Z,79.70
2017-09-14T16:22:03.444Z,77.70
2017-09-14T16:24:31.132Z,75.90
2017-09-14T16:26:58.641Z,76.30
2017-09-14T16:29:26.491Z,75.40
2017-09-14T16:31:53.997Z,75.30
2017-09-14T16:34:21.608Z,75.40
2017-09-14T16:36:49.359Z,76.90
2017-09-14T16:39:16.868Z,74.00
2017-09-14T16:41:44.556Z,75.50
2017-09-14T16:44:12.074Z,76.60
2017-09-14T16:46:40.534Z,76.70
2017-09-14T16:49:09.232Z,76.80
2017-09-14T16:51:36.822Z,77.70
2017-09-14T16:54:04.648Z,77.70
2017-09-14T16:56:32.392Z,78.80
2017-09-14T16:58:59.905Z,77.70
2017-09-14T17:01:27.591Z,78.80
2017-09-14T17:03:55.269Z,81.20
2017-09-14T17:06:22.792Z,79.30
2017-09-14T17:08:50.417Z,78.40
2017-09-14T17:11:17.927Z,78.20
2017-09-14T17:13:45.472Z,78.60
2017-09-14T17:16:13.201Z,81.00
2017-09-14T17:18:41.469Z,79.50
2017-09-14T17:21:09.085Z,79.50
2017-09-14T17:23:36.589Z,80.40
2017-09-14T17:26:04.319Z,81.10
2017-09-14T17:28:32.648Z,81.50
2017-09-14T17:31:00.162Z,81.80
2017-09-14T17:33:27.669Z,81.90
2017-09-14T17:35:55.186Z,82.00
2017-09-14T17:38:22.820Z,82.60
2017-09-14T17:40:50.348Z,82.60
2017-09-14T17:43:17.886Z,82.80
2017-09-14T17:45:45.631Z,83.10
2017-09-14T17:48:13.175Z,83.30
2017-09-14T17:50:40.708Z,84.00
2017-09-14T17:53:08.208Z,84.10
2017-09-14T17:55:36.614Z,84.40
2017-09-14T17:58:04.128Z,84.90
2017-09-14T18:00:31.628Z,85.30
2017-09-14T18:03:00.058Z,85.90
2017-09-14T18:05:27.621Z,85.90
2017-09-14T18:07:55.145Z,86.30
2017-09-14T18:10:22.656Z,86.80
2017-09-14T18:12:50.277Z,87.20
2017-09-14T18:15:18.060Z,87.50
2017-09-14T18:17:45.577Z,87.60
2017-09-14T18:20:13.259Z,88.50
2017-09-14T18:22:40.774Z,89.40
2017-09-14T18:25:08.478Z,89.90
2017-09-14T18:27:35.992Z,90.10
2017-09-14T18:30:04.445Z,90.20
2017-09-14T18:32:32.056Z,90.30
2017-09-14T18:34:59.569Z,90.20
2017-09-14T18:37:27.083Z,90.30
2017-09-14T18:39:54.615Z,90.30
2017-09-14T18:42:22.917Z,90.90
2017-09-14T18:44:50.427Z,90.90
2017-09-14T18:47:17.949Z,91.20
2017-09-14T18:49:45.500Z,91.10
2017-09-14T18:52:13.007Z,91.20
2017-09-14T18:54:40.528Z,91.30
2017-09-14T18:57:08.077Z,91.50
2017-09-14T18:59:35.669Z,91.50
2017-09-14T19:02:03.424Z,91.60
2017-09-14T19:04:30.939Z,91.80
2017-09-14T19:06:58.642Z,92.00
2017-09-14T19:09:26.157Z,92.00
2017-09-14T19:11:53.667Z,92.10
2017-09-14T19:14:21.317Z,92.00
2017-09-14T19:16:49.088Z,92.20
2017-09-14T19:19:16.844Z,92.50
2017-09-14T19:21:44.393Z,92.60
2017-09-14T19:24:11.952Z,92.60
2017-09-14T19:26:39.523Z,92.40
2017-09-14T19:29:07.468Z,92.40
2017-09-14T19:31:35.064Z,92.40
2017-09-14T19:34:02.685Z,92.30
2017-09-14T19:36:30.276Z,92.30
2017-09-14T19:38:57.776Z,92.30
2017-09-14T19:41:25.297Z,92.40
2017-09-14T19:43:52.921Z,92.60
2017-09-14T19:46:20.428Z,92.40
2017-09-14T19:48:47.935Z,92.40
2017-09-14T19:51:15.496Z,92.60
2017-09-14T19:53:43.063Z,92.60
2017-09-14T19:56:10.561Z,92.70
2017-09-14T19:58:38.078Z,92.70
2017-09-14T20:01:05.756Z,92.60
2017-09-14T20:03:33.527Z,92.70
2017-09-14T20:06:01.156Z,92.70
2017-09-14T20:08:29.666Z,92.90
2017-09-14T20:10:57.173Z,92.90
2017-09-14T20:13:25.596Z,92.90
2017-09-14T20:15:53.108Z,92.90
2017-09-14T20:18:20.660Z,92.90
2017-09-14T20:20:48.166Z,93.00
2017-09-14T20:23:15.664Z,92.90
2017-09-14T20:25:43.289Z,93.30
2017-09-14T20:28:10.852Z,93.10
2017-09-14T20:30:38.375Z,93.30
2017-09-14T20:33:06.055Z,93.30
2017-09-14T20:35:33.840Z,93.20
2017-09-14T20:38:01.876Z,93.40
2017-09-14T20:40:29.396Z,93.50
2017-09-14T20:42:57.121Z,93.60
2017-09-14T20:45:24.849Z,93.60
2017-09-14T20:47:52.647Z,93.60
2017-09-14T20:50:20.161Z,93.60
2017-09-14T20:52:47.846Z,93.70
2017-09-14T20:55:15.892Z,93.90
2017-09-14T20:57:43.429Z,93.80
2017-09-14T21:00:12.079Z,93.80
2017-09-14T21:02:40.050Z,93.70
2017-09-14T21:05:07.584Z,93.70
2017-09-14T21:07:35.111Z,93.70
2017-09-14T21:10:02.805Z,93.80
2017-09-14T21:12:30.609Z,94.00
2017-09-14T21:14:58.133Z,94.00
2017-09-14T21:17:25.841Z,94.10
2017-09-14T21:19:53.369Z,94.10
2017-09-14T21:22:20.900Z,94.20
2017-09-14T21:24:48.398Z,94.30
2017-09-14T21:27:15.984Z,94.50
2017-09-14T21:29:43.497Z,94.50
2017-09-14T21:32:11.141Z,94.50
2017-09-14T21:34:38.668Z,94.70
2017-09-14T21:37:06.187Z,94.70
2017-09-14T21:39:33.847Z,94.70
2017-09-14T21:42:01.483Z,94.80
2017-09-14T21:44:28.988Z,94.80
2017-09-14T21:46:56.514Z,94.80
2017-09-14T21:49:24.285Z,94.80
2017-09-14T21:51:51.919Z,95.10
2017-09-14T21:54:19.427Z,94.80
2017-09-14T21:56:46.956Z,94.80
2017-09-14T21:59:14.720Z,94.70
2017-09-14T22:01:42.488Z,94.60
2017-09-14T22:04:10.198Z,94.60
2017-09-14T22:06:37.710Z,94.50
2017-09-14T22:09:05.476Z,94.50
2017-09-14T22:11:32.976Z,94.60
2017-09-14T22:14:00.483Z,94.70
2017-09-14T22:16:27.992Z,94.80
2017-09-14T22:18:56.476Z,95.20
2017-09-14T22:21:24.033Z,95.20
2017-09-14T22:23:51.924Z,95.30
2017-09-14T22:26:20.342Z,95.40
2017-09-14T22:28:48.065Z,95.40
2017-09-14T22:31:15.648Z,95.40
2017-09-14T22:33:43.183Z,95.70
2017-09-14T22:36:11.765Z,95.30
2017-09-14T22:38:39.284Z,95.10
2017-09-14T22:41:06.805Z,95.10
2017-09-14T22:43:34.301Z,95.20
2017-09-14T22:46:02.578Z,95.10
2017-09-14T22:48:30.087Z,95.10
2017-09-14T22:50:57.602Z,95.00
2017-09-14T22:53:25.872Z,95.00
2017-09-14T22:55:53.405Z,95.00
2017-09-14T22:58:20.927Z,95.00
2017-09-14T23:00:48.517Z,94.90
2017-09-14T23:03:16.015Z,94.80
2017-09-14T23:05:43.705Z,94.70
2017-09-14T23:08:11.286Z,94.60
2017-09-14T23:10:38.791Z,94.70
2017-09-14T23:13:07.068Z,94.70
2017-09-14T23:15:34.780Z,94.70
2017-09-14T23:18:02.315Z,94.70
2017-09-14T23:20:29.832Z,94.70
2017-09-14T23:22:58.108Z,94.80
2017-09-14T23:25:25.616Z,94.80
2017-09-14T23:27:53.292Z,94.90
2017-09-14T23:30:20.824Z,94.90
2017-09-14T23:32:48.692Z,95.10
2017-09-14T23:35:16.184Z,95.10
2017-09-14T23:37:43.913Z,95.20
2017-09-14T23:40:11.404Z,95.20
2017-09-14T23:42:38.952Z,95.20
2017-09-14T23:45:06.725Z,95.40
2017-09-14T23:47:34.661Z,95.40
2017-09-14T23:50:02.276Z,95.30
2017-09-14T23:52:29.801Z,95.20
2017-09-14T23:54:57.311Z,95.20
2017-09-14T23:57:24.832Z,95.30
2017-09-14T23:59:52.368Z,95.30
